createdAt,value
2024-01-27T00:02:00.614Z,1.40
2024-01-27T00:04:28.781Z,5.80
2024-01-27T00:06:56.977Z,2.30
2024-01-27T00:09:25.702Z,1.73
2024-01-27T00:11:54.284Z,3.57
2024-01-27T00:14:22.642Z,0.83
2024-01-27T00:16:50.729Z,2.47
2024-01-27T00:19:22.978Z,1.80
2024-01-27T00:21:51.206Z,1.33
2024-01-27T00:24:19.450Z,2.73
2024-01-27T00:26:48.203Z,1.13
2024-01-27T00:29:16.467Z,0.87
2024-01-27T00:31:59.020Z,1.53
2024-01-27T00:34:28.533Z,0.80
2024-01-27T00:36:56.778Z,1.03
2024-01-27T00:39:24.984Z,4.47
2024-01-27T00:41:55.996Z,1.37
2024-01-27T00:44:28.081Z,0.97
2024-01-27T00:46:57.428Z,1.93
2024-01-27T00:49:25.624Z,1.93
2024-01-27T00:51:55.329Z,0.50
2024-01-27T00:54:23.519Z,1.17
2024-01-27T00:56:51.880Z,0.98
2024-01-27T00:59:19.990Z,0.83
2024-01-27T01:01:48.475Z,1.20
2024-01-27T01:04:16.903Z,0.77
2024-01-27T01:06:45.376Z,1.50
2024-01-27T01:09:14.985Z,1.57
2024-01-27T01:11:43.700Z,1.57
2024-01-27T01:14:12.322Z,0.87
2024-01-27T01:16:41.705Z,1.10
2024-01-27T01:19:10.346Z,4.90
2024-01-27T01:21:38.584Z,1.23
2024-01-27T01:24:06.900Z,1.13
2024-01-27T01:26:36.558Z,1.77
2024-01-27T01:29:06.373Z,1.97
2024-01-27T01:31:34.545Z,4.07
2024-01-27T01:34:02.890Z,1.43
2024-01-27T01:36:31.482Z,2.77
2024-01-27T01:39:01.300Z,1.37
2024-01-27T01:41:29.534Z,2.47
2024-01-27T01:43:59.232Z,1.73
2024-01-27T01:46:27.487Z,2.20
2024-01-27T01:48:56.993Z,3.63
2024-01-27T01:51:25.522Z,1.60
2024-01-27T01:53:56.678Z,2.50
2024-01-27T01:56:25.637Z,1.30
2024-01-27T01:58:56.366Z,1.73
2024-01-27T02:01:26.742Z,2.87
2024-01-27T02:03:55.779Z,5.40
2024-01-27T02:06:24.140Z,2.37
2024-01-27T02:08:52.753Z,2.33
2024-01-27T02:11:21.330Z,2.00
2024-01-27T02:13:50.148Z,1.07
2024-01-27T02:16:23.602Z,2.73
2024-01-27T02:18:54.691Z,2.87
2024-01-27T02:21:23.159Z,6.00
2024-01-27T02:23:53.785Z,1.73
2024-01-27T02:26:23.582Z,2.93
2024-01-27T02:28:52.593Z,2.93
2024-01-27T02:31:20.963Z,4.07
2024-01-27T02:33:49.250Z,5.90
2024-01-27T02:36:17.461Z,3.23
2024-01-27T02:38:45.917Z,2.50
2024-01-27T02:41:16.635Z,3.93
2024-01-27T02:43:46.243Z,4.70
2024-01-27T02:46:16.647Z,2.43
2024-01-27T02:48:45.683Z,2.73
2024-01-27T02:51:14.471Z,1.60
2024-01-27T02:53:43.161Z,5.90
2024-01-27T02:56:11.345Z,1.20
2024-01-27T02:58:39.828Z,3.90
2024-01-27T03:01:09.410Z,3.87
2024-01-27T03:03:37.965Z,4.17
2024-01-27T03:06:06.910Z,4.57
2024-01-27T03:08:35.897Z,2.27
2024-01-27T03:11:05.303Z,3.33
2024-01-27T03:13:33.808Z,1.47
2024-01-27T03:16:02.398Z,5.03
2024-01-27T03:18:32.268Z,5.77
2024-01-27T03:21:00.635Z,1.83
2024-01-27T03:23:29.352Z,2.73
2024-01-27T03:25:57.843Z,4.17
2024-01-27T03:28:26.213Z,3.30
2024-01-27T03:30:54.360Z,3.60
2024-01-27T03:33:24.165Z,4.30
2024-01-27T03:35:54.434Z,3.67
2024-01-27T03:38:22.655Z,4.00
2024-01-27T03:40:51.169Z,4.17
2024-01-27T03:43:19.568Z,2.37
2024-01-27T03:45:50.396Z,2.17
2024-01-27T03:48:18.646Z,3.77
2024-01-27T03:50:46.936Z,3.57
2024-01-27T03:53:15.562Z,4.83
2024-01-27T03:55:46.748Z,6.87
2024-01-27T03:58:15.231Z,4.87
2024-01-27T04:00:45.898Z,5.87
2024-01-27T04:03:14.560Z,3.20
2024-01-27T04:05:43.317Z,3.73
2024-01-27T04:08:11.553Z,4.83
2024-01-27T04:10:41.164Z,3.20
2024-01-27T04:13:09.681Z,4.77
2024-01-27T04:15:40.215Z,5.37
2024-01-27T04:18:10.949Z,4.50
2024-01-27T04:20:39.512Z,2.97
2024-01-27T04:23:07.653Z,5.27
2024-01-27T04:25:37.273Z,5.83
2024-01-27T04:28:07.291Z,3.40
2024-01-27T04:30:40.132Z,4.43
2024-01-27T04:33:09.762Z,4.00
2024-01-27T04:35:38.132Z,8.03
2024-01-27T04:38:06.501Z,4.67
2024-01-27T04:40:36.428Z,3.00
2024-01-27T04:43:06.344Z,4.00
2024-01-27T04:45:37.081Z,3.47
2024-01-27T04:48:06.199Z,4.63
2024-01-27T04:50:34.404Z,4.13
2024-01-27T04:53:03.095Z,5.07
2024-01-27T04:55:31.292Z,5.47
2024-01-27T04:57:59.816Z,3.10
2024-01-27T05:00:29.981Z,2.87
2024-01-27T05:03:00.422Z,5.57
2024-01-27T05:05:28.755Z,6.60
2024-01-27T05:07:56.827Z,4.20
2024-01-27T05:10:26.682Z,6.13
2024-01-27T05:12:56.447Z,4.00
2024-01-27T05:15:24.670Z,5.80
2024-01-27T05:17:54.441Z,3.07
2024-01-27T05:20:22.623Z,4.83
2024-01-27T05:22:50.797Z,5.30
2024-01-27T05:25:19.154Z,4.63
2024-01-27T05:27:47.509Z,5.83
2024-01-27T05:30:16.043Z,5.80
2024-01-27T05:32:46.132Z,4.60
2024-01-27T05:35:16.114Z,5.47
2024-01-27T05:37:44.212Z,2.20
2024-01-27T05:40:12.877Z,5.97
2024-01-27T05:42:43.013Z,4.53
2024-01-27T05:45:12.694Z,5.03
2024-01-27T05:47:42.797Z,4.37
2024-01-27T05:50:12.512Z,5.60
2024-01-27T05:52:42.400Z,2.57
2024-01-27T05:55:14.071Z,5.43
2024-01-27T05:57:42.287Z,8.43
2024-01-27T06:00:11.741Z,8.33
2024-01-27T06:02:39.950Z,5.47
2024-01-27T06:05:10.107Z,6.53
2024-01-27T06:07:42.771Z,5.80
2024-01-27T06:10:11.447Z,4.00
2024-01-27T06:12:40.813Z,4.30
2024-01-27T06:15:11.460Z,7.00
2024-01-27T06:17:40.153Z,4.80
2024-01-27T06:20:10.050Z,5.67
2024-01-27T06:22:38.288Z,3.80
2024-01-27T06:25:11.678Z,5.73
2024-01-27T06:27:42.300Z,6.53
2024-01-27T06:30:12.021Z,5.47
2024-01-27T06:32:40.350Z,4.67
2024-01-27T06:35:09.847Z,4.67
2024-01-27T06:37:38.984Z,5.60
2024-01-27T06:40:10.247Z,5.90
2024-01-27T06:42:38.916Z,6.30
2024-01-27T06:45:08.012Z,7.90
2024-01-27T06:47:36.254Z,4.43
2024-01-27T06:50:05.833Z,3.60
2024-01-27T06:52:34.391Z,4.03
2024-01-27T06:55:03.079Z,5.63
2024-01-27T06:57:32.801Z,4.73
2024-01-27T07:00:01.021Z,7.47
2024-01-27T07:02:29.841Z,6.67
2024-01-27T07:04:58.272Z,5.77
2024-01-27T07:07:28.657Z,5.10
2024-01-27T07:09:58.384Z,5.43
2024-01-27T07:12:27.195Z,5.70
2024-01-27T07:14:58.123Z,6.67
2024-01-27T07:17:27.041Z,7.27
2024-01-27T07:19:55.519Z,5.07
2024-01-27T07:22:26.885Z,6.33
2024-01-27T07:24:55.096Z,6.80
2024-01-27T07:27:24.699Z,4.57
2024-01-27T07:29:53.161Z,4.50
2024-01-27T07:32:23.522Z,5.90
2024-01-27T07:34:51.704Z,4.73
2024-01-27T07:37:20.076Z,6.20
2024-01-27T07:39:50.271Z,4.10
2024-01-27T07:42:18.513Z,7.47
2024-01-27T07:44:51.329Z,5.90
2024-01-27T07:47:21.543Z,7.80
2024-01-27T07:49:52.514Z,5.27
2024-01-27T07:52:23.009Z,3.50
2024-01-27T07:54:51.075Z,3.97
2024-01-27T07:57:19.316Z,7.27
2024-01-27T07:59:48.121Z,7.03
2024-01-27T08:02:24.123Z,4.90
2024-01-27T08:04:54.172Z,7.30
2024-01-27T08:07:24.227Z,6.83
2024-01-27T08:09:56.854Z,9.23
2024-01-27T08:12:25.325Z,8.43
2024-01-27T08:14:55.030Z,3.73
2024-01-27T08:17:25.058Z,5.60
2024-01-27T08:19:54.662Z,5.53
2024-01-27T08:22:23.570Z,4.30
2024-01-27T08:24:51.731Z,6.63
2024-01-27T08:27:20.549Z,3.67
2024-01-27T08:29:49.199Z,7.33
2024-01-27T08:32:27.571Z,4.83
2024-01-27T08:34:58.376Z,7.03
2024-01-27T08:37:26.620Z,4.97
2024-01-27T08:39:55.823Z,6.23
2024-01-27T08:42:28.717Z,5.43
2024-01-27T08:44:58.809Z,6.73
2024-01-27T08:47:27.751Z,6.10
2024-01-27T08:49:58.994Z,6.07
2024-01-27T08:52:27.374Z,7.60
2024-01-27T08:54:56.033Z,8.80
2024-01-27T08:57:27.809Z,9.20
2024-01-27T08:59:56.085Z,7.77
2024-01-27T09:02:24.657Z,4.57
2024-01-27T09:04:53.307Z,9.53
2024-01-27T09:07:53.701Z,10.50
2024-01-27T09:10:21.828Z,7.20
2024-01-27T09:12:50.560Z,4.70
2024-01-27T09:15:21.494Z,8.77
2024-01-27T09:17:50.042Z,5.97
2024-01-27T09:20:18.677Z,5.33
2024-01-27T09:22:50.866Z,8.63
2024-01-27T09:25:19.463Z,5.60
2024-01-27T09:27:48.205Z,6.72
2024-01-27T09:30:20.382Z,5.82
2024-01-27T09:32:49.693Z,6.47
2024-01-27T09:35:18.686Z,5.80
2024-01-27T09:37:48.621Z,4.47
2024-01-27T09:40:20.339Z,7.93
2024-01-27T09:42:54.192Z,7.28
2024-01-27T09:45:23.757Z,5.10
2024-01-27T09:47:54.831Z,5.85
2024-01-27T09:50:24.591Z,5.88
2024-01-27T09:52:54.492Z,9.18
2024-01-27T09:55:23.831Z,5.22
2024-01-27T09:57:53.247Z,12.18
2024-01-27T10:00:24.293Z,6.22
2024-01-27T10:02:56.065Z,8.18
2024-01-27T10:05:25.646Z,4.72
2024-01-27T10:07:58.140Z,6.60
2024-01-27T10:10:27.904Z,7.18
2024-01-27T10:13:04.253Z,6.10
2024-01-27T10:15:32.456Z,5.43
2024-01-27T10:18:08.743Z,6.03
2024-01-27T10:20:40.020Z,8.00
2024-01-27T10:23:17.694Z,5.90
2024-01-27T10:25:47.136Z,7.63
2024-01-27T10:28:26.074Z,6.03
2024-01-27T10:30:56.754Z,7.63
2024-01-27T10:33:25.428Z,9.38
2024-01-27T10:36:01.281Z,6.70
2024-01-27T10:38:38.050Z,4.90
2024-01-27T10:41:13.445Z,4.88
2024-01-27T10:43:43.280Z,3.92
2024-01-27T10:46:12.702Z,8.52
2024-01-27T10:48:42.853Z,6.20
2024-01-27T10:51:15.018Z,7.78
2024-01-27T10:53:56.870Z,5.35
2024-01-27T10:56:26.593Z,6.82
2024-01-27T10:58:56.087Z,5.00
2024-01-27T11:01:28.102Z,6.50
2024-01-27T11:04:01.067Z,7.38
2024-01-27T11:06:31.933Z,4.82
2024-01-27T11:09:05.113Z,6.45
2024-01-27T11:11:34.303Z,6.75
2024-01-27T11:14:04.376Z,7.68
2024-01-27T11:16:32.974Z,7.03
2024-01-27T11:19:01.623Z,6.78
2024-01-27T11:21:31.847Z,5.53
2024-01-27T11:24:01.920Z,5.15
2024-01-27T11:26:34.228Z,7.28
2024-01-27T11:29:10.867Z,5.70
2024-01-27T11:31:43.708Z,5.43
2024-01-27T11:34:17.744Z,5.70
2024-01-27T11:36:46.954Z,5.53
2024-01-27T11:39:31.865Z,4.13
2024-01-27T11:42:12.100Z,5.63
2024-01-27T11:44:43.790Z,5.68
2024-01-27T11:47:17.277Z,5.57
2024-01-27T11:49:46.640Z,5.05
2024-01-27T11:52:15.323Z,5.18
2024-01-27T11:54:45.060Z,6.80
2024-01-27T11:57:13.430Z,9.38
2024-01-27T11:59:42.584Z,5.70
2024-01-27T12:02:12.501Z,5.95
2024-01-27T12:04:41.158Z,6.05
2024-01-27T12:07:10.519Z,5.93
2024-01-27T12:09:39.421Z,7.43
2024-01-27T12:12:11.088Z,5.50
2024-01-27T12:14:45.183Z,5.72
2024-01-27T12:17:16.096Z,7.82
2024-01-27T12:19:49.976Z,6.07
2024-01-27T12:22:25.063Z,5.68
2024-01-27T12:24:53.388Z,7.88
2024-01-27T12:27:24.017Z,9.77
2024-01-27T12:29:52.902Z,5.60
2024-01-27T12:32:21.846Z,7.30
2024-01-27T12:34:52.172Z,7.93
2024-01-27T12:37:23.793Z,7.22
2024-01-27T12:39:52.675Z,10.40
2024-01-27T12:42:24.636Z,6.93
2024-01-27T12:44:53.082Z,10.35
2024-01-27T12:47:24.217Z,6.72
2024-01-27T12:49:53.105Z,7.57
2024-01-27T12:52:26.359Z,5.47
2024-01-27T12:54:54.933Z,10.70
2024-01-27T12:57:27.244Z,7.90
2024-01-27T12:59:55.696Z,8.02
2024-01-27T13:02:32.316Z,5.03
2024-01-27T13:05:04.135Z,10.52
2024-01-27T13:07:35.092Z,5.25
2024-01-27T13:10:08.502Z,10.15
2024-01-27T13:12:41.156Z,5.37
2024-01-27T13:15:09.958Z,7.63
2024-01-27T13:17:45.761Z,4.25
2024-01-27T13:20:20.453Z,6.30
2024-01-27T13:22:50.191Z,8.02
2024-01-27T13:25:18.400Z,7.93
2024-01-27T13:27:48.094Z,8.98
2024-01-27T13:30:18.610Z,7.77
2024-01-27T13:32:50.748Z,6.78
2024-01-27T13:35:19.304Z,4.93
2024-01-27T13:37:49.336Z,4.35
2024-01-27T13:40:18.341Z,4.63
2024-01-27T13:42:51.859Z,4.57
2024-01-27T13:45:20.314Z,7.30
2024-01-27T13:47:48.541Z,7.43
2024-01-27T13:50:17.227Z,6.95
2024-01-27T13:52:47.183Z,4.20
2024-01-27T13:55:16.023Z,6.33
2024-01-27T13:57:44.375Z,7.10
2024-01-27T14:00:17.398Z,9.75
2024-01-27T14:02:47.087Z,6.50
2024-01-27T14:05:15.892Z,6.32
2024-01-27T14:07:44.752Z,2.35
2024-01-27T14:10:13.169Z,9.67
2024-01-27T14:12:45.548Z,6.57
2024-01-27T14:15:20.503Z,11.15
2024-01-27T14:17:50.530Z,6.83
2024-01-27T14:20:19.132Z,7.40
2024-01-27T14:22:50.603Z,4.80
2024-01-27T14:25:18.741Z,6.23
2024-01-27T14:27:52.080Z,7.90
2024-01-27T14:30:21.786Z,6.47
2024-01-27T14:32:52.169Z,5.60
2024-01-27T14:35:22.768Z,8.10
2024-01-27T14:37:59.620Z,5.00
2024-01-27T14:40:30.798Z,11.80
2024-01-27T14:42:59.283Z,10.38
2024-01-27T14:45:32.735Z,9.73
2024-01-27T14:50:33.201Z,5.83
2024-01-27T14:53:03.250Z,4.60
2024-01-27T14:55:34.290Z,5.40
2024-01-27T14:58:04.953Z,8.47
2024-01-27T15:00:42.523Z,4.73
2024-01-27T15:03:16.291Z,6.97
2024-01-27T15:05:45.295Z,8.07
2024-01-27T15:08:14.008Z,5.03
2024-01-27T15:10:44.558Z,6.80
2024-01-27T15:13:15.373Z,5.53
2024-01-27T15:15:45.285Z,7.93
2024-01-27T15:18:14.915Z,7.33
2024-01-27T15:20:45.228Z,9.03
2024-01-27T15:23:13.653Z,8.10
2024-01-27T15:25:41.742Z,6.13
2024-01-27T15:28:10.999Z,6.83
2024-01-27T15:30:39.180Z,12.93
2024-01-27T15:33:10.430Z,8.90
2024-01-27T15:35:41.241Z,6.47
2024-01-27T15:38:09.854Z,6.17
2024-01-27T15:40:38.056Z,9.20
2024-01-27T15:43:06.674Z,10.73
2024-01-27T15:45:35.879Z,12.57
2024-01-27T15:48:04.488Z,8.57
2024-01-27T15:50:34.953Z,8.90
2024-01-27T15:53:04.235Z,8.63
2024-01-27T15:55:34.429Z,7.63
2024-01-27T15:58:02.843Z,5.20
2024-01-27T16:00:31.502Z,6.80
2024-01-27T16:02:59.746Z,7.83
2024-01-27T16:05:27.887Z,6.03
2024-01-27T16:07:58.406Z,7.57
2024-01-27T16:10:26.487Z,8.17
2024-01-27T16:12:54.774Z,6.10
2024-01-27T16:15:22.978Z,6.70
2024-01-27T16:17:51.148Z,12.23
2024-01-27T16:20:19.324Z,8.93
2024-01-27T16:22:48.877Z,7.53
2024-01-27T16:25:18.456Z,7.03
2024-01-27T16:27:47.076Z,8.13
2024-01-27T16:30:17.684Z,7.43
2024-01-27T16:32:46.293Z,7.77
2024-01-27T16:35:14.902Z,11.23
2024-01-27T16:37:43.920Z,9.17
2024-01-27T16:40:12.751Z,8.47
2024-01-27T16:42:43.302Z,9.23
2024-01-27T16:45:12.006Z,10.00
2024-01-27T16:47:42.835Z,8.87
2024-01-27T16:50:11.650Z,8.93
2024-01-27T16:52:39.900Z,7.53
2024-01-27T16:55:08.778Z,9.10
2024-01-27T16:57:38.343Z,4.90
2024-01-27T17:00:11.904Z,10.57
2024-01-27T17:02:40.447Z,10.27
2024-01-27T17:05:08.903Z,8.23
2024-01-27T17:07:37.197Z,9.53
2024-01-27T17:10:06.480Z,6.33
2024-01-27T17:12:35.038Z,8.20
2024-01-27T17:15:05.280Z,8.97
2024-01-27T17:17:35.980Z,8.07
2024-01-27T17:20:05.257Z,8.87
2024-01-27T17:22:33.726Z,10.30
2024-01-27T17:25:05.000Z,10.43
2024-01-27T17:27:33.930Z,8.70
2024-01-27T17:30:05.523Z,11.63
2024-01-27T17:32:36.225Z,9.17
2024-01-27T17:35:05.495Z,12.77
2024-01-27T17:37:36.064Z,10.47
2024-01-27T17:40:07.312Z,9.20
2024-01-27T17:42:39.190Z,13.00
2024-01-27T17:45:14.047Z,9.87
2024-01-27T17:47:46.145Z,12.07
2024-01-27T17:50:14.633Z,8.37
2024-01-27T17:52:45.634Z,11.67
2024-01-27T17:55:14.304Z,9.53
2024-01-27T17:57:44.308Z,7.77
2024-01-27T18:00:21.191Z,12.73
2024-01-27T18:02:54.506Z,9.23
2024-01-27T18:05:26.093Z,9.17
2024-01-27T18:07:58.224Z,9.40
2024-01-27T18:10:26.395Z,8.70
2024-01-27T18:12:55.555Z,10.07
2024-01-27T18:15:24.069Z,9.57
2024-01-27T18:17:55.509Z,12.93
2024-01-27T18:20:23.979Z,13.33
2024-01-27T18:22:52.439Z,10.70
2024-01-27T18:25:22.898Z,10.20
2024-01-27T18:27:53.115Z,11.17
2024-01-27T18:30:25.891Z,6.47
2024-01-27T18:32:55.543Z,8.97
2024-01-27T18:35:33.103Z,11.40
2024-01-27T18:38:09.875Z,11.97
2024-01-27T18:40:40.295Z,10.37
2024-01-27T18:43:08.626Z,9.50
2024-01-27T18:45:40.374Z,7.37
2024-01-27T18:48:14.251Z,9.17
2024-01-27T18:50:44.153Z,8.07
2024-01-27T18:53:13.539Z,7.10
2024-01-27T18:55:46.859Z,13.40
2024-01-27T18:58:16.041Z,10.37
2024-01-27T19:00:45.377Z,8.63
2024-01-27T19:03:15.415Z,9.50
2024-01-27T19:05:44.053Z,12.87
2024-01-27T19:08:12.573Z,7.67
2024-01-27T19:10:46.155Z,8.97
2024-01-27T19:13:17.733Z,6.33
2024-01-27T19:15:46.123Z,6.83
2024-01-27T19:18:16.069Z,8.80
2024-01-27T19:20:44.977Z,11.30
2024-01-27T19:23:13.752Z,7.57
2024-01-27T19:25:42.404Z,8.50
2024-01-27T19:28:11.571Z,6.63
2024-01-27T19:30:45.051Z,7.70
2024-01-27T19:33:14.423Z,7.50
2024-01-27T19:35:44.315Z,7.53
2024-01-27T19:38:12.516Z,11.47
2024-01-27T19:40:41.132Z,8.90
2024-01-27T19:43:14.147Z,11.97
2024-01-27T19:45:45.432Z,13.87
2024-01-27T19:48:16.138Z,9.40
2024-01-27T19:50:49.195Z,11.17
2024-01-27T19:53:18.089Z,11.90
2024-01-27T19:55:46.363Z,9.07
2024-01-27T19:58:14.603Z,9.80
2024-01-27T20:00:43.155Z,11.90
2024-01-27T20:03:11.477Z,8.83
2024-01-27T20:05:41.392Z,11.40
2024-01-27T20:08:11.153Z,9.07
2024-01-27T20:10:39.367Z,8.53
2024-01-27T20:13:08.588Z,12.20
2024-01-27T20:15:36.911Z,9.80
2024-01-27T20:18:07.168Z,10.80
2024-01-27T20:20:36.962Z,7.03
2024-01-27T20:23:05.894Z,9.87
2024-01-27T20:25:35.855Z,9.40
2024-01-27T20:28:04.604Z,8.17
2024-01-27T20:30:34.521Z,10.10
2024-01-27T20:33:09.531Z,8.80
2024-01-27T20:35:49.335Z,8.63
2024-01-27T20:38:18.382Z,7.53
2024-01-27T20:40:57.538Z,5.97
2024-01-27T20:43:26.830Z,8.63
2024-01-27T20:45:55.298Z,7.23
2024-01-27T20:48:24.139Z,10.03
2024-01-27T20:50:54.541Z,11.50
2024-01-27T20:53:23.095Z,12.87
2024-01-27T20:55:54.447Z,9.03
2024-01-27T20:58:24.335Z,11.30
2024-01-27T21:00:56.654Z,9.83
2024-01-27T21:03:25.498Z,9.93
2024-01-27T21:05:56.761Z,8.67
2024-01-27T21:08:24.964Z,7.30
2024-01-27T21:10:57.397Z,10.70
2024-01-27T21:13:25.923Z,11.93
2024-01-27T21:15:54.255Z,6.63
2024-01-27T21:18:22.882Z,8.23
2024-01-27T21:20:52.691Z,13.17
2024-01-27T21:23:21.384Z,7.03
2024-01-27T21:25:50.271Z,11.37
2024-01-27T21:28:26.158Z,11.30
2024-01-27T21:30:55.371Z,7.57
2024-01-27T21:33:23.846Z,7.73
2024-01-27T21:35:52.549Z,9.03
2024-01-27T21:38:22.553Z,8.57
2024-01-27T21:40:51.695Z,7.07
2024-01-27T21:43:23.363Z,11.77
2024-01-27T21:45:52.433Z,10.80
2024-01-27T21:48:23.481Z,8.10
2024-01-27T21:50:51.786Z,10.33
2024-01-27T21:53:23.009Z,7.57
2024-01-27T21:55:58.445Z,10.30
2024-01-27T21:58:33.916Z,12.77
2024-01-27T22:01:17.234Z,10.97
2024-01-27T22:03:46.009Z,9.83
2024-01-27T22:06:15.048Z,9.27
2024-01-27T22:08:43.885Z,8.30
2024-01-27T22:11:16.779Z,8.33
2024-01-27T22:14:08.267Z,8.53
2024-01-27T22:16:37.046Z,12.50
2024-01-27T22:19:06.502Z,10.97
2024-01-27T22:21:34.891Z,11.10
2024-01-27T22:24:03.396Z,7.80
2024-01-27T22:26:31.827Z,8.07
2024-01-27T22:29:00.621Z,7.37
2024-01-27T22:31:33.405Z,5.80
2024-01-27T22:34:02.344Z,7.10
2024-01-27T22:36:30.828Z,11.33
2024-01-27T22:39:01.707Z,8.97
2024-01-27T22:41:30.196Z,10.23
2024-01-27T22:43:59.360Z,11.70
2024-01-27T22:46:29.408Z,10.90
2024-01-27T22:49:00.239Z,7.93
2024-01-27T22:51:31.667Z,9.10
2024-01-27T22:54:00.178Z,10.67
2024-01-27T22:56:28.508Z,14.17
2024-01-27T22:58:57.135Z,13.13
2024-01-27T23:01:25.395Z,9.23
2024-01-27T23:03:57.421Z,9.20
2024-01-27T23:06:25.998Z,10.07
2024-01-27T23:08:54.884Z,9.30
2024-01-27T23:11:23.666Z,10.20
2024-01-27T23:13:51.712Z,7.87
2024-01-27T23:16:20.607Z,12.10
2024-01-27T23:18:49.529Z,14.23
2024-01-27T23:21:20.548Z,9.20
2024-01-27T23:23:49.563Z,9.43
2024-01-27T23:26:18.674Z,10.10
2024-01-27T23:28:46.908Z,8.57
2024-01-27T23:31:15.168Z,10.33
2024-01-27T23:33:44.736Z,8.27
2024-01-27T23:36:13.387Z,12.40
2024-01-27T23:38:43.571Z,9.53
2024-01-27T23:41:11.910Z,10.40
2024-01-27T23:43:40.271Z,9.10
2024-01-27T23:46:09.063Z,8.80
2024-01-27T23:48:39.074Z,10.43
2024-01-27T23:51:10.773Z,11.03
2024-01-27T23:53:39.323Z,12.67
2024-01-27T23:56:10.047Z,8.97
2024-01-27T23:58:38.320Z,6.87
